sensor_id;sensor_type;location;lat;lon;timestamp;pressure;altitude;pressure_sealevel;temperature;humidity
50282;BME280;36176;51.506;10.272;2022-07-18T00:01:01;100403.94;;;11.64;67.06
50282;BME280;36176;51.506;10.272;2022-07-18T00:03:28;100406.66;;;11.63;66.76
50282;BME280;36176;51.506;10.272;2022-07-18T00:05:55;100414.69;;;11.61;66.95
50282;BME280;36176;51.506;10.272;2022-07-18T00:08:22;100415.63;;;11.59;66.73
50282;BME280;36176;51.506;10.272;2022-07-18T00:10:49;100417.50;;;11.57;66.78
50282;BME280;36176;51.506;10.272;2022-07-18T00:13:17;100415.84;;;11.54;66.86
50282;BME280;36176;51.506;10.272;2022-07-18T00:15:44;100415.03;;;11.52;67.02
50282;BME280;36176;51.506;10.272;2022-07-18T00:18:11;100414.25;;;11.48;67.41
50282;BME280;36176;51.506;10.272;2022-07-18T00:20:38;100420.53;;;11.46;67.17
50282;BME280;36176;51.506;10.272;2022-07-18T00:23:06;100423.22;;;11.44;67.22
50282;BME280;36176;51.506;10.272;2022-07-18T00:25:33;100425.31;;;11.36;67.41
50282;BME280;36176;51.506;10.272;2022-07-18T00:28:00;100425.53;;;11.30;67.65
50282;BME280;36176;51.506;10.272;2022-07-18T00:30:27;100428.13;;;11.32;67.73
50282;BME280;36176;51.506;10.272;2022-07-18T00:32:54;100430.72;;;11.33;67.72
50282;BME280;36176;51.506;10.272;2022-07-18T00:35:21;100435.09;;;11.34;67.75
50282;BME280;36176;51.506;10.272;2022-07-18T00:37:49;100433.38;;;11.33;67.17
50282;BME280;36176;51.506;10.272;2022-07-18T00:40:16;100442.25;;;11.32;68.06
50282;BME280;36176;51.506;10.272;2022-07-18T00:42:43;100442.34;;;11.29;68.31
50282;BME280;36176;51.506;10.272;2022-07-18T00:45:10;100460.06;;;11.28;68.24
50282;BME280;36176;51.506;10.272;2022-07-18T00:47:37;100453.13;;;11.24;67.99
50282;BME280;36176;51.506;10.272;2022-07-18T00:50:05;100447.06;;;11.21;68.65
50282;BME280;36176;51.506;10.272;2022-07-18T00:52:34;100441.06;;;11.16;68.97
50282;BME280;36176;51.506;10.272;2022-07-18T00:55:04;100445.63;;;11.11;68.98
50282;BME280;36176;51.506;10.272;2022-07-18T00:57:31;100441.38;;;11.06;69.25
50282;BME280;36176;51.506;10.272;2022-07-18T00:59:58;100434.41;;;11.02;69.71
50282;BME280;36176;51.506;10.272;2022-07-18T01:02:44;100429.38;;;10.95;69.97
50282;BME280;36176;51.506;10.272;2022-07-18T01:05:11;100430.59;;;10.84;69.62
50282;BME280;36176;51.506;10.272;2022-07-18T01:07:38;100423.84;;;10.74;69.81
50282;BME280;36176;51.506;10.272;2022-07-18T01:10:06;100428.75;;;10.60;70.02
50282;BME280;36176;51.506;10.272;2022-07-18T01:12:34;100432.47;;;10.54;69.60
50282;BME280;36176;51.506;10.272;2022-07-18T01:15:01;100429.81;;;10.54;70.43
50282;BME280;36176;51.506;10.272;2022-07-18T01:17:28;100430.66;;;10.55;69.99
50282;BME280;36176;51.506;10.272;2022-07-18T01:20:01;100427.28;;;10.51;70.79
50282;BME280;36176;51.506;10.272;2022-07-18T01:22:28;100425.59;;;10.49;70.36
50282;BME280;36176;51.506;10.272;2022-07-18T01:24:58;100430.00;;;10.48;70.98
50282;BME280;36176;51.506;10.272;2022-07-18T01:27:25;100432.72;;;10.47;70.40
50282;BME280;36176;51.506;10.272;2022-07-18T01:29:53;100419.47;;;10.47;70.36
50282;BME280;36176;51.506;10.272;2022-07-18T01:32:20;100418.63;;;10.45;70.73
50282;BME280;36176;51.506;10.272;2022-07-18T01:34:48;100417.97;;;10.38;71.44
50282;BME280;36176;51.506;10.272;2022-07-18T01:37:16;100412.75;;;10.35;71.22
50282;BME280;36176;51.506;10.272;2022-07-18T01:39:44;100411.84;;;10.36;71.46
50282;BME280;36176;51.506;10.272;2022-07-18T01:42:12;100405.63;;;10.37;71.27
50282;BME280;36176;51.506;10.272;2022-07-18T01:44:40;100405.53;;;10.40;71.05
50282;BME280;36176;51.506;10.272;2022-07-18T01:47:09;100407.22;;;10.42;70.65
50282;BME280;36176;51.506;10.272;2022-07-18T01:49:37;100401.06;;;10.42;70.27
50282;BME280;36176;51.506;10.272;2022-07-18T01:52:05;100405.63;;;10.37;70.42
50282;BME280;36176;51.506;10.272;2022-07-18T01:54:35;100407.53;;;10.32;70.25
50282;BME280;36176;51.506;10.272;2022-07-18T01:57:05;100416.50;;;10.28;70.61
50282;BME280;36176;51.506;10.272;2022-07-18T01:59:33;100407.66;;;10.29;70.69
50282;BME280;36176;51.506;10.272;2022-07-18T02:02:03;100404.09;;;10.30;71.57
50282;BME280;36176;51.506;10.272;2022-07-18T02:04:30;100400.53;;;10.31;70.93
50282;BME280;36176;51.506;10.272;2022-07-18T02:07:16;100407.53;;;10.32;71.50
50282;BME280;36176;51.506;10.272;2022-07-18T02:09:43;100400.59;;;10.28;71.52
50282;BME280;36176;51.506;10.272;2022-07-18T02:12:10;100402.38;;;10.27;71.81
50282;BME280;36176;51.506;10.272;2022-07-18T02:14:37;100403.31;;;10.25;71.55
50282;BME280;36176;51.506;10.272;2022-07-18T02:17:04;100406.06;;;10.21;72.13
50282;BME280;36176;51.506;10.272;2022-07-18T02:19:32;100410.63;;;10.16;72.65
50282;BME280;36176;51.506;10.272;2022-07-18T02:21:59;100405.44;;;10.13;72.13
50282;BME280;36176;51.506;10.272;2022-07-18T02:24:26;100406.44;;;10.09;72.37
50282;BME280;36176;51.506;10.272;2022-07-18T02:26:53;100403.06;;;10.04;71.91
50282;BME280;36176;51.506;10.272;2022-07-18T02:29:21;100397.00;;;10.00;72.03
50282;BME280;36176;51.506;10.272;2022-07-18T02:31:48;100391.94;;;9.93;72.25
50282;BME280;36176;51.506;10.272;2022-07-18T02:34:15;100397.34;;;9.88;73.04
50282;BME280;36176;51.506;10.272;2022-07-18T02:36:44;100399.38;;;9.80;73.28
50282;BME280;36176;51.506;10.272;2022-07-18T02:39:11;100398.72;;;9.72;73.67
50282;BME280;36176;51.506;10.272;2022-07-18T02:41:39;100400.59;;;9.68;73.57
50282;BME280;36176;51.506;10.272;2022-07-18T02:44:06;100398.84;;;9.67;73.97
50282;BME280;36176;51.506;10.272;2022-07-18T02:46:33;100406.78;;;9.67;74.10
50282;BME280;36176;51.506;10.272;2022-07-18T02:49:01;100406.00;;;9.64;74.03
50282;BME280;36176;51.506;10.272;2022-07-18T02:51:28;100400.03;;;9.57;74.26
50282;BME280;36176;51.506;10.272;2022-07-18T02:53:55;100395.69;;;9.54;73.92
50282;BME280;36176;51.506;10.272;2022-07-18T02:56:22;100397.63;;;9.48;74.67
50282;BME280;36176;51.506;10.272;2022-07-18T02:58:49;100394.25;;;9.43;74.69
50282;BME280;36176;51.506;10.272;2022-07-18T03:01:16;100391.56;;;9.44;74.64
50282;BME280;36176;51.506;10.272;2022-07-18T03:03:44;100403.00;;;9.45;74.66
50282;BME280;36176;51.506;10.272;2022-07-18T03:06:11;100406.53;;;9.45;73.94
50282;BME280;36176;51.506;10.272;2022-07-18T03:08:38;100406.63;;;9.42;74.32
50282;BME280;36176;51.506;10.272;2022-07-18T03:11:05;100410.19;;;9.41;74.15
50282;BME280;36176;51.506;10.272;2022-07-18T03:13:32;100409.38;;;9.37;75.23
50282;BME280;36176;51.506;10.272;2022-07-18T03:15:59;100409.41;;;9.36;74.73
50282;BME280;36176;51.506;10.272;2022-07-18T03:18:26;100410.25;;;9.38;75.26
50282;BME280;36176;51.506;10.272;2022-07-18T03:20:54;100410.22;;;9.40;75.18
50282;BME280;36176;51.506;10.272;2022-07-18T03:23:21;100407.59;;;9.38;74.63
50282;BME280;36176;51.506;10.272;2022-07-18T03:25:48;100404.09;;;9.37;74.90
50282;BME280;36176;51.506;10.272;2022-07-18T03:28:15;100401.53;;;9.34;75.48
50282;BME280;36176;51.506;10.272;2022-07-18T03:30:42;100403.25;;;9.35;75.49
50282;BME280;36176;51.506;10.272;2022-07-18T03:33:09;100398.09;;;9.31;75.28
50282;BME280;36176;51.506;10.272;2022-07-18T03:35:37;100396.47;;;9.27;75.88
50282;BME280;36176;51.506;10.272;2022-07-18T03:38:04;100399.34;;;9.18;76.38
50282;BME280;36176;51.506;10.272;2022-07-18T03:40:31;100396.00;;;9.11;76.67
50282;BME280;36176;51.506;10.272;2022-07-18T03:42:58;100395.25;;;9.06;76.25
50282;BME280;36176;51.506;10.272;2022-07-18T03:45:26;100390.84;;;9.05;76.07
50282;BME280;36176;51.506;10.272;2022-07-18T03:47:53;100402.25;;;9.07;76.49
50282;BME280;36176;51.506;10.272;2022-07-18T03:50:21;100406.56;;;9.11;76.41
50282;BME280;36176;51.506;10.272;2022-07-18T03:52:49;100395.03;;;9.15;76.84
50282;BME280;36176;51.506;10.272;2022-07-18T03:55:16;100392.28;;;9.18;76.77
50282;BME280;36176;51.506;10.272;2022-07-18T03:57:43;100395.69;;;9.22;76.98
50282;BME280;36176;51.506;10.272;2022-07-18T04:00:11;100382.34;;;9.26;77.27
50282;BME280;36176;51.506;10.272;2022-07-18T04:02:43;100398.94;;;9.33;76.88
50282;BME280;36176;51.506;10.272;2022-07-18T04:05:11;100388.09;;;9.42;76.31
50282;BME280;36176;51.506;10.272;2022-07-18T04:07:39;100381.72;;;9.49;76.46
50282;BME280;36176;51.506;10.272;2022-07-18T04:10:07;100385.94;;;9.56;76.25
50282;BME280;36176;51.506;10.272;2022-07-18T04:12:44;100392.69;;;9.67;75.62
50282;BME280;36176;51.506;10.272;2022-07-18T04:15:12;100388.94;;;9.74;75.81
50282;BME280;36176;51.506;10.272;2022-07-18T04:17:39;100395.81;;;9.81;75.23
50282;BME280;36176;51.506;10.272;2022-07-18T04:20:08;100386.69;;;9.91;75.45
50282;BME280;36176;51.506;10.272;2022-07-18T04:22:59;100383.69;;;10.04;75.05
50282;BME280;36176;51.506;10.272;2022-07-18T04:25:29;100383.44;;;10.11;74.97
50282;BME280;36176;51.506;10.272;2022-07-18T04:28:01;100384.78;;;10.25;74.67
50282;BME280;36176;51.506;10.272;2022-07-18T04:30:29;100385.41;;;10.34;74.34
50282;BME280;36176;51.506;10.272;2022-07-18T04:33:03;100385.88;;;10.47;74.82
50282;BME280;36176;51.506;10.272;2022-07-18T04:35:31;100383.94;;;10.52;74.56
50282;BME280;36176;51.506;10.272;2022-07-18T04:37:59;100381.81;;;10.63;73.68
50282;BME280;36176;51.506;10.272;2022-07-18T04:40:26;100380.47;;;10.77;73.40
50282;BME280;36176;51.506;10.272;2022-07-18T04:42:53;100377.22;;;10.95;73.55
50282;BME280;36176;51.506;10.272;2022-07-18T04:45:20;100373.13;;;11.12;73.71
50282;BME280;36176;51.506;10.272;2022-07-18T04:47:51;100369.81;;;11.30;72.73
50282;BME280;36176;51.506;10.272;2022-07-18T04:50:19;100370.00;;;11.49;72.08
50282;BME280;36176;51.506;10.272;2022-07-18T04:52:47;100376.91;;;11.78;71.91
50282;BME280;36176;51.506;10.272;2022-07-18T04:55:16;100373.28;;;12.26;70.96
50282;BME280;36176;51.506;10.272;2022-07-18T04:57:43;100380.34;;;12.92;70.47
50282;BME280;36176;51.506;10.272;2022-07-18T05:00:13;100377.75;;;13.72;67.25
50282;BME280;36176;51.506;10.272;2022-07-18T05:02:42;100383.34;;;14.61;65.23
50282;BME280;36176;51.506;10.272;2022-07-18T05:05:11;100380.13;;;15.41;61.94
50282;BME280;36176;51.506;10.272;2022-07-18T05:07:39;100378.16;;;16.11;59.69
50282;BME280;36176;51.506;10.272;2022-07-18T05:10:08;100373.00;;;16.70;57.43
50282;BME280;36176;51.506;10.272;2022-07-18T05:12:37;100371.38;;;17.28;56.43
50282;BME280;36176;51.506;10.272;2022-07-18T05:15:06;100368.75;;;17.85;54.83
50282;BME280;36176;51.506;10.272;2022-07-18T05:17:35;100366.94;;;18.42;53.64
50282;BME280;36176;51.506;10.272;2022-07-18T05:20:04;100373.13;;;18.84;50.60
50282;BME280;36176;51.506;10.272;2022-07-18T05:22:33;100379.22;;;19.26;50.93
50282;BME280;36176;51.506;10.272;2022-07-18T05:25:05;100379.00;;;19.67;49.25
50282;BME280;36176;51.506;10.272;2022-07-18T05:27:33;100380.94;;;20.04;46.48
50282;BME280;36176;51.506;10.272;2022-07-18T05:30:02;100376.59;;;20.51;46.76
50282;BME280;36176;51.506;10.272;2022-07-18T05:32:29;100367.03;;;20.95;45.94
50282;BME280;36176;51.506;10.272;2022-07-18T05:34:56;100366.03;;;21.31;45.15
50282;BME280;36176;51.506;10.272;2022-07-18T05:37:23;100361.31;;;21.69;45.25
50282;BME280;36176;51.506;10.272;2022-07-18T05:39:51;100361.47;;;22.01;44.54
50282;BME280;36176;51.506;10.272;2022-07-18T05:42:18;100356.28;;;22.32;42.18
50282;BME280;36176;51.506;10.272;2022-07-18T05:45:06;100364.50;;;22.73;40.63
50282;BME280;36176;51.506;10.272;2022-07-18T05:47:33;100361.81;;;23.06;39.33
50282;BME280;36176;51.506;10.272;2022-07-18T05:50:01;100363.03;;;23.44;38.77
50282;BME280;36176;51.506;10.272;2022-07-18T05:52:29;100368.88;;;23.70;39.25
50282;BME280;36176;51.506;10.272;2022-07-18T05:54:56;100369.78;;;24.11;38.48
50282;BME280;36176;51.506;10.272;2022-07-18T05:57:23;100369.44;;;24.45;37.18
50282;BME280;36176;51.506;10.272;2022-07-18T05:59:50;100364.78;;;24.66;35.77
50282;BME280;36176;51.506;10.272;2022-07-18T06:02:17;100366.38;;;24.69;36.59
50282;BME280;36176;51.506;10.272;2022-07-18T06:04:44;100362.22;;;25.03;35.90
50282;BME280;36176;51.506;10.272;2022-07-18T06:07:32;100365.50;;;25.27;34.28
50282;BME280;36176;51.506;10.272;2022-07-18T06:09:59;100366.91;;;25.50;34.77
50282;BME280;36176;51.506;10.272;2022-07-18T06:12:30;100367.06;;;25.76;34.85
50282;BME280;36176;51.506;10.272;2022-07-18T06:14:58;100367.63;;;25.89;35.10
50282;BME280;36176;51.506;10.272;2022-07-18T06:17:26;100363.16;;;26.26;34.93
50282;BME280;36176;51.506;10.272;2022-07-18T06:19:56;100367.59;;;26.72;33.73
50282;BME280;36176;51.506;10.272;2022-07-18T06:22:23;100370.75;;;26.86;33.51
50282;BME280;36176;51.506;10.272;2022-07-18T06:24:51;100367.38;;;27.46;32.78
50282;BME280;36176;51.506;10.272;2022-07-18T06:27:18;100363.81;;;27.79;31.52
50282;BME280;36176;51.506;10.272;2022-07-18T06:29:45;100361.75;;;28.08;31.62
50282;BME280;36176;51.506;10.272;2022-07-18T06:32:12;100352.94;;;28.73;29.64
50282;BME280;36176;51.506;10.272;2022-07-18T06:34:39;100347.50;;;29.14;28.40
50282;BME280;36176;51.506;10.272;2022-07-18T06:37:07;100338.81;;;29.18;29.82
50282;BME280;36176;51.506;10.272;2022-07-18T06:39:34;100345.75;;;29.54;29.12
50282;BME280;36176;51.506;10.272;2022-07-18T06:42:01;100350.53;;;29.68;27.92
50282;BME280;36176;51.506;10.272;2022-07-18T06:44:28;100347.47;;;29.46;27.58
50282;BME280;36176;51.506;10.272;2022-07-18T06:46:56;100343.59;;;29.24;26.42
50282;BME280;36176;51.506;10.272;2022-07-18T06:49:26;100345.50;;;29.08;27.50
50282;BME280;36176;51.506;10.272;2022-07-18T06:51:53;100352.28;;;29.20;28.37
50282;BME280;36176;51.506;10.272;2022-07-18T06:54:26;100336.34;;;29.56;29.15
50282;BME280;36176;51.506;10.272;2022-07-18T06:56:55;100335.56;;;29.95;28.15
50282;BME280;36176;51.506;10.272;2022-07-18T06:59:22;100330.69;;;30.22;26.24
50282;BME280;36176;51.506;10.272;2022-07-18T07:01:49;100322.94;;;30.34;27.34
50282;BME280;36176;51.506;10.272;2022-07-18T07:04:16;100326.41;;;30.27;26.83
50282;BME280;36176;51.506;10.272;2022-07-18T07:06:44;100319.66;;;30.38;26.85
50282;BME280;36176;51.506;10.272;2022-07-18T07:09:11;100320.22;;;30.57;27.11
50282;BME280;36176;51.506;10.272;2022-07-18T07:11:38;100309.88;;;30.67;27.15
50282;BME280;36176;51.506;10.272;2022-07-18T07:14:05;100309.25;;;30.88;27.32
50282;BME280;36176;51.506;10.272;2022-07-18T07:16:32;100310.75;;;31.28;26.39
50282;BME280;36176;51.506;10.272;2022-07-18T07:19:00;100308.88;;;31.44;25.84
50282;BME280;36176;51.506;10.272;2022-07-18T07:21:27;100302.69;;;31.50;25.48
50282;BME280;36176;51.506;10.272;2022-07-18T07:23:54;100295.88;;;31.46;25.89
50282;BME280;36176;51.506;10.272;2022-07-18T07:26:21;100293.59;;;31.64;26.33
50282;BME280;36176;51.506;10.272;2022-07-18T07:28:48;100299.72;;;31.81;25.45
50282;BME280;36176;51.506;10.272;2022-07-18T07:31:15;100297.84;;;31.82;25.68
50282;BME280;36176;51.506;10.272;2022-07-18T07:33:42;100302.94;;;31.85;26.10
50282;BME280;36176;51.506;10.272;2022-07-18T07:36:11;100304.84;;;31.69;24.45
50282;BME280;36176;51.506;10.272;2022-07-18T07:38:38;100305.31;;;31.58;24.19
50282;BME280;36176;51.506;10.272;2022-07-18T07:41:06;100291.31;;;31.68;24.08
50282;BME280;36176;51.506;10.272;2022-07-18T07:43:33;100293.78;;;31.77;24.34
50282;BME280;36176;51.506;10.272;2022-07-18T07:46:03;100306.31;;;31.87;24.91
50282;BME280;36176;51.506;10.272;2022-07-18T07:48:30;100301.88;;;32.15;24.22
50282;BME280;36176;51.506;10.272;2022-07-18T07:50:58;100298.94;;;32.53;23.51
50282;BME280;36176;51.506;10.272;2022-07-18T07:53:25;100301.34;;;32.63;23.46
50282;BME280;36176;51.506;10.272;2022-07-18T07:55:52;100295.78;;;32.56;22.14
50282;BME280;36176;51.506;10.272;2022-07-18T07:58:19;100290.53;;;32.55;22.97
50282;BME280;36176;51.506;10.272;2022-07-18T08:00:46;100295.69;;;32.65;22.51
50282;BME280;36176;51.506;10.272;2022-07-18T08:03:14;100284.50;;;32.88;22.30
50282;BME280;36176;51.506;10.272;2022-07-18T08:05:48;100282.81;;;32.65;21.48
50282;BME280;36176;51.506;10.272;2022-07-18T08:08:17;100285.63;;;32.50;22.30
50282;BME280;36176;51.506;10.272;2022-07-18T08:10:45;100289.38;;;32.71;22.71
50282;BME280;36176;51.506;10.272;2022-07-18T08:13:14;100279.06;;;33.22;21.82
50282;BME280;36176;51.506;10.272;2022-07-18T08:15:41;100279.28;;;33.21;21.06
50282;BME280;36176;51.506;10.272;2022-07-18T08:18:09;100281.81;;;33.22;21.17
50282;BME280;36176;51.506;10.272;2022-07-18T08:20:36;100266.84;;;33.25;21.89
50282;BME280;36176;51.506;10.272;2022-07-18T08:23:07;100264.66;;;33.48;20.89
50282;BME280;36176;51.506;10.272;2022-07-18T08:25:36;100268.84;;;33.44;21.04
50282;BME280;36176;51.506;10.272;2022-07-18T08:28:04;100261.28;;;33.46;21.07
50282;BME280;36176;51.506;10.272;2022-07-18T08:30:31;100266.63;;;33.55;20.14
50282;BME280;36176;51.506;10.272;2022-07-18T08:32:59;100262.22;;;33.60;19.29
50282;BME280;36176;51.506;10.272;2022-07-18T08:35:28;100262.50;;;33.72;18.51
50282;BME280;36176;51.506;10.272;2022-07-18T08:37:55;100258.72;;;33.45;19.53
50282;BME280;36176;51.506;10.272;2022-07-18T08:40:22;100264.47;;;33.50;19.47
50282;BME280;36176;51.506;10.272;2022-07-18T08:42:50;100270.03;;;33.29;19.90
50282;BME280;36176;51.506;10.272;2022-07-18T08:45:38;100266.94;;;33.45;20.01
50282;BME280;36176;51.506;10.272;2022-07-18T08:48:17;100270.31;;;33.75;21.38
50282;BME280;36176;51.506;10.272;2022-07-18T08:51:08;100266.25;;;34.19;19.75
50282;BME280;36176;51.506;10.272;2022-07-18T08:53:35;100273.53;;;34.47;18.31
50282;BME280;36176;51.506;10.272;2022-07-18T08:56:04;100269.28;;;34.38;18.72
50282;BME280;36176;51.506;10.272;2022-07-18T08:58:31;100271.38;;;34.22;18.29
50282;BME280;36176;51.506;10.272;2022-07-18T09:01:14;100268.13;;;34.05;18.10
50282;BME280;36176;51.506;10.272;2022-07-18T09:03:41;100271.91;;;34.04;19.88
50282;BME280;36176;51.506;10.272;2022-07-18T09:06:11;100261.69;;;34.46;18.74
50282;BME280;36176;51.506;10.272;2022-07-18T09:08:40;100260.03;;;34.65;17.70
50282;BME280;36176;51.506;10.272;2022-07-18T09:11:23;100267.22;;;34.93;19.29
50282;BME280;36176;51.506;10.272;2022-07-18T09:14:13;100256.59;;;35.36;17.35
50282;BME280;36176;51.506;10.272;2022-07-18T09:17:00;100262.56;;;34.67;17.48
50282;BME280;36176;51.506;10.272;2022-07-18T09:19:27;100260.84;;;34.59;17.19
50282;BME280;36176;51.506;10.272;2022-07-18T09:21:57;100263.63;;;34.99;17.69
50282;BME280;36176;51.506;10.272;2022-07-18T09:24:51;100259.13;;;35.45;17.54
50282;BME280;36176;51.506;10.272;2022-07-18T09:27:26;100250.84;;;36.03;18.15
50282;BME280;36176;51.506;10.272;2022-07-18T09:32:40;100255.41;;;36.29;17.52
50282;BME280;36176;51.506;10.272;2022-07-18T09:35:11;100250.13;;;36.28;17.61
50282;BME280;36176;51.506;10.272;2022-07-18T09:37:51;100244.19;;;36.24;17.43
50282;BME280;36176;51.506;10.272;2022-07-18T09:40:20;100244.63;;;36.59;16.70
50282;BME280;36176;51.506;10.272;2022-07-18T09:42:51;100244.47;;;36.48;17.20
50282;BME280;36176;51.506;10.272;2022-07-18T09:45:24;100238.03;;;36.22;16.78
50282;BME280;36176;51.506;10.272;2022-07-18T09:47:56;100237.97;;;35.97;17.17
50282;BME280;36176;51.506;10.272;2022-07-18T09:50:24;100240.03;;;35.63;16.73
50282;BME280;36176;51.506;10.272;2022-07-18T09:52:55;100234.94;;;35.60;18.06
50282;BME280;36176;51.506;10.272;2022-07-18T09:55:43;100230.09;;;36.00;17.71
50282;BME280;36176;51.506;10.272;2022-07-18T09:58:12;100233.44;;;36.16;18.58
50282;BME280;36176;51.506;10.272;2022-07-18T10:00:40;100230.31;;;36.37;17.08
50282;BME280;36176;51.506;10.272;2022-07-18T10:03:08;100232.16;;;36.44;16.31
50282;BME280;36176;51.506;10.272;2022-07-18T10:05:36;100216.91;;;36.09;16.85
50282;BME280;36176;51.506;10.272;2022-07-18T10:08:05;100220.47;;;35.78;18.29
50282;BME280;36176;51.506;10.272;2022-07-18T10:10:33;100212.28;;;35.96;17.55
50282;BME280;36176;51.506;10.272;2022-07-18T10:13:00;100221.28;;;36.24;18.33
50282;BME280;36176;51.506;10.272;2022-07-18T10:15:29;100227.00;;;36.22;18.41
50282;BME280;36176;51.506;10.272;2022-07-18T10:17:56;100227.97;;;36.34;18.12
50282;BME280;36176;51.506;10.272;2022-07-18T10:20:28;100227.34;;;36.71;16.89
50282;BME280;36176;51.506;10.272;2022-07-18T10:22:56;100224.38;;;36.34;16.95
50282;BME280;36176;51.506;10.272;2022-07-18T10:25:24;100225.53;;;36.19;16.64
50282;BME280;36176;51.506;10.272;2022-07-18T10:30:29;100221.16;;;36.05;17.22
50282;BME280;36176;51.506;10.272;2022-07-18T10:32:56;100221.56;;;36.09;18.59
50282;BME280;36176;51.506;10.272;2022-07-18T10:38:19;100214.59;;;35.48;18.64
50282;BME280;36176;51.506;10.272;2022-07-18T10:41:02;100219.75;;;35.31;16.88
50282;BME280;36176;51.506;10.272;2022-07-18T10:45:57;100216.06;;;35.50;18.60
50282;BME280;36176;51.506;10.272;2022-07-18T10:51:08;100221.84;;;36.32;18.55
50282;BME280;36176;51.506;10.272;2022-07-18T10:53:56;100214.66;;;36.31;18.41
50282;BME280;36176;51.506;10.272;2022-07-18T10:58:56;100206.28;;;36.45;17.68
50282;BME280;36176;51.506;10.272;2022-07-18T11:01:24;100202.81;;;36.24;16.31
50282;BME280;36176;51.506;10.272;2022-07-18T11:06:54;100185.09;;;36.07;17.07
50282;BME280;36176;51.506;10.272;2022-07-18T11:09:31;100184.16;;;35.81;18.80
50282;BME280;36176;51.506;10.272;2022-07-18T11:15:05;100184.38;;;36.18;18.87
50282;BME280;36176;51.506;10.272;2022-07-18T11:17:55;100187.81;;;36.45;18.96
50282;BME280;36176;51.506;10.272;2022-07-18T11:22:54;100180.97;;;36.23;17.11
50282;BME280;36176;51.506;10.272;2022-07-18T11:25:23;100174.59;;;35.90;17.10
50282;BME280;36176;51.506;10.272;2022-07-18T11:28:10;100164.53;;;35.71;17.68
50282;BME280;36176;51.506;10.272;2022-07-18T11:30:39;100169.56;;;35.74;18.82
50282;BME280;36176;51.506;10.272;2022-07-18T11:33:07;100171.69;;;35.78;19.20
50282;BME280;36176;51.506;10.272;2022-07-18T11:35:46;100161.75;;;36.09;17.76
50282;BME280;36176;51.506;10.272;2022-07-18T11:38:13;100172.25;;;36.26;16.61
50282;BME280;36176;51.506;10.272;2022-07-18T11:40:50;100161.44;;;36.24;17.11
50282;BME280;36176;51.506;10.272;2022-07-18T11:43:21;100167.50;;;36.01;18.30
50282;BME280;36176;51.506;10.272;2022-07-18T11:45:58;100163.44;;;36.10;18.72
50282;BME280;36176;51.506;10.272;2022-07-18T11:48:25;100154.47;;;36.22;18.17
50282;BME280;36176;51.506;10.272;2022-07-18T11:50:52;100160.19;;;35.82;17.51
50282;BME280;36176;51.506;10.272;2022-07-18T11:53:19;100153.28;;;36.04;16.61
50282;BME280;36176;51.506;10.272;2022-07-18T11:55:46;100154.41;;;36.28;16.64
50282;BME280;36176;51.506;10.272;2022-07-18T11:58:13;100151.97;;;36.38;16.80
50282;BME280;36176;51.506;10.272;2022-07-18T12:00:41;100139.53;;;36.29;16.37
50282;BME280;36176;51.506;10.272;2022-07-18T12:05:41;100144.22;;;35.97;16.98
50282;BME280;36176;51.506;10.272;2022-07-18T12:11:10;100130.03;;;35.48;17.65
50282;BME280;36176;51.506;10.272;2022-07-18T12:16:07;100130.44;;;35.52;19.15
50282;BME280;36176;51.506;10.272;2022-07-18T12:18:36;100126.81;;;35.65;17.14
50282;BME280;36176;51.506;10.272;2022-07-18T12:21:10;100133.53;;;35.75;18.03
50282;BME280;36176;51.506;10.272;2022-07-18T12:23:37;100125.91;;;36.03;17.32
50282;BME280;36176;51.506;10.272;2022-07-18T12:29:10;100121.88;;;35.73;17.22
50282;BME280;36176;51.506;10.272;2022-07-18T12:31:41;100122.94;;;35.72;18.19
50282;BME280;36176;51.506;10.272;2022-07-18T12:34:10;100117.88;;;35.69;17.36
50282;BME280;36176;51.506;10.272;2022-07-18T12:39:40;100109.84;;;36.25;18.82
50282;BME280;36176;51.506;10.272;2022-07-18T12:42:29;100105.06;;;36.38;18.41
50282;BME280;36176;51.506;10.272;2022-07-18T12:44:57;100102.38;;;36.57;17.47
50282;BME280;36176;51.506;10.272;2022-07-18T12:47:24;100097.25;;;36.60;17.41
50282;BME280;36176;51.506;10.272;2022-07-18T12:49:51;100085.47;;;36.72;17.03
50282;BME280;36176;51.506;10.272;2022-07-18T12:52:18;100093.22;;;36.81;16.77
50282;BME280;36176;51.506;10.272;2022-07-18T12:54:46;100086.84;;;36.81;17.44
50282;BME280;36176;51.506;10.272;2022-07-18T12:57:13;100086.25;;;36.54;16.78
50282;BME280;36176;51.506;10.272;2022-07-18T12:59:40;100087.06;;;36.36;17.57
50282;BME280;36176;51.506;10.272;2022-07-18T13:02:07;100084.53;;;36.34;16.39
50282;BME280;36176;51.506;10.272;2022-07-18T13:04:34;100085.56;;;36.08;16.50
50282;BME280;36176;51.506;10.272;2022-07-18T13:07:01;100079.75;;;35.91;18.00
50282;BME280;36176;51.506;10.272;2022-07-18T13:09:28;100076.22;;;36.16;18.02
50282;BME280;36176;51.506;10.272;2022-07-18T13:11:55;100071.28;;;36.43;17.31
50282;BME280;36176;51.506;10.272;2022-07-18T13:14:22;100072.81;;;36.39;17.54
50282;BME280;36176;51.506;10.272;2022-07-18T13:16:49;100052.84;;;36.18;16.68
50282;BME280;36176;51.506;10.272;2022-07-18T13:19:16;100066.84;;;35.60;17.50
50282;BME280;36176;51.506;10.272;2022-07-18T13:21:43;100063.88;;;35.17;18.74
50282;BME280;36176;51.506;10.272;2022-07-18T13:24:22;100068.94;;;35.20;18.68
50282;BME280;36176;51.506;10.272;2022-07-18T13:27:01;100073.56;;;35.26;18.62
50282;BME280;36176;51.506;10.272;2022-07-18T13:29:28;100076.28;;;35.39;18.03